Terminal Aerodrome Forecast
Issued by NWS North Platte, NE

Home | Current Version | Previous Version | Text Only | Print | Product List | Glossary On
Versions: 1 2 3 4 5 6 7 8 9 10 11 12 13
000
FTUS43 KLBF 281724
TAFVTN
TAF
KVTN 281724Z 2818/2918 32013G21KT P6SM SCT250
     FM290000 29012KT P6SM SCT250
     FM290900 24007KT P6SM SCT250=

USA.gov is the U.S. government's official web portal to all federal, state and local government web resources and services.